Time;durP1;ratioP1;P1;durP2;ratioP2;P2;SDS_P1;SDS_P2;PMS_P1;PMS_P2;Temp;Humidity;BMP_temperature;BMP_pressure;BME280_temperature;BME280_humidity;BME280_pressure;Samples;Min_cycle;Max_cycle;Signal;HPM_P1;HPM_P2
2021/09/07 00:00:01;;;;;;;11.10;7.00;;;;;;;23.32;56.58;98675.56;5048548;28;20198;-72
2021/09/07 00:02:28;;;;;;;11.70;6.80;;;;;;;23.20;57.39;98677.69;5049735;28;20225;-72
2021/09/07 00:04:55;;;;;;;9.60;6.50;;;;;;;23.20;57.66;98670.31;5037703;28;20226;-72
2021/09/07 00:07:24;;;;;;;10.17;6.47;;;;;;;23.19;57.14;98673.31;5040762;28;20210;-72
2021/09/07 00:09:52;;;;;;;9.03;6.67;;;;;;;23.18;57.78;98671.66;5043963;28;20290;-72
2021/09/07 00:12:21;;;;;;;13.17;7.27;;;;;;;23.27;57.84;98667.34;5047631;28;20715;-72
2021/09/07 00:14:48;;;;;;;9.13;7.10;;;;;;;23.26;57.72;98668.44;5045081;28;20202;-72
2021/09/07 00:17:16;;;;;;;8.77;6.43;;;;;;;23.11;58.26;98668.34;5047936;28;20217;-72
2021/09/07 00:19:44;;;;;;;12.43;7.37;;;;;;;23.06;58.42;98671.03;5043820;28;20199;-72
2021/09/07 00:22:11;;;;;;;10.73;7.40;;;;;;;22.91;59.88;98660.06;5047844;28;20232;-72
2021/09/07 00:24:38;;;;;;;11.47;6.67;;;;;;;22.74;61.27;98664.84;5045242;28;20230;-72
2021/09/07 00:27:06;;;;;;;10.47;7.03;;;;;;;22.58;62.27;98665.84;5048548;28;20213;-72
2021/09/07 00:29:34;;;;;;;12.03;6.77;;;;;;;22.30;63.13;98666.16;5048674;28;20206;-72
2021/09/07 00:32:01;;;;;;;10.83;6.73;;;;;;;22.74;62.04;98667.56;5044202;28;20241;-72
2021/09/07 00:34:29;;;;;;;10.57;7.50;;;;;;;22.88;60.98;98666.03;5048598;28;20194;-72
2021/09/07 00:36:56;;;;;;;10.77;6.50;;;;;;;22.83;60.83;98669.56;5042105;28;20206;-72
2021/09/07 00:39:23;;;;;;;11.27;7.23;;;;;;;22.86;60.73;98669.00;5047852;28;20202;-72
2021/09/07 00:41:50;;;;;;;11.33;7.20;;;;;;;22.81;60.47;98663.53;5049170;28;20229;-72
2021/09/07 00:44:19;;;;;;;11.23;7.00;;;;;;;22.84;60.46;98671.19;5047008;28;20237;-72
2021/09/07 00:46:50;;;;;;;9.80;7.43;;;;;;;23.07;59.55;98661.78;5048970;28;20214;-72
2021/09/07 00:49:17;;;;;;;10.63;7.07;;;;;;;23.04;59.48;98657.69;5049941;28;20642;-72
2021/09/07 00:51:47;;;;;;;12.43;7.57;;;;;;;22.60;61.50;98659.03;5049223;28;20325;-72
2021/09/07 00:54:14;;;;;;;10.80;7.70;;;;;;;22.67;62.21;98661.53;5048337;28;20213;-72
2021/09/07 00:56:42;;;;;;;10.73;7.03;;;;;;;22.82;60.83;98664.38;5045248;28;20224;-73
2021/09/07 00:59:11;;;;;;;9.83;7.00;;;;;;;22.73;61.65;98661.31;5046499;28;20217;-72
2021/09/07 01:01:38;;;;;;;14.30;7.73;;;;;;;22.77;61.18;98669.78;5048843;28;20228;-73
2021/09/07 01:04:07;;;;;;;10.40;7.63;;;;;;;22.55;62.50;98664.44;5053232;28;20239;-73
2021/09/07 01:06:35;;;;;;;10.37;7.17;;;;;;;22.31;64.04;98662.34;5047389;28;20204;-72
2021/09/07 01:09:03;;;;;;;14.80;8.37;;;;;;;22.19;64.66;98654.34;5050750;28;20655;-72
2021/09/07 01:11:31;;;;;;;11.13;7.97;;;;;;;22.51;63.85;98662.53;5050352;28;20732;-72
2021/09/07 01:13:58;;;;;;;12.23;7.67;;;;;;;22.29;65.29;98646.28;5043434;28;20288;-73
2021/09/07 01:16:25;;;;;;;11.17;7.77;;;;;;;22.47;64.57;98655.97;5049575;28;20297;-72
2021/09/07 01:18:53;;;;;;;11.83;8.30;;;;;;;22.37;64.63;98664.00;5046992;28;20209;-72
2021/09/07 01:21:22;;;;;;;11.77;7.77;;;;;;;22.45;64.10;98653.50;5045607;28;20226;-72
2021/09/07 01:23:49;;;;;;;12.50;8.10;;;;;;;22.36;64.71;98656.94;5050975;28;20228;-72
2021/09/07 01:26:20;;;;;;;14.90;7.97;;;;;;;22.19;66.41;98661.72;5051233;28;20210;-72
2021/09/07 01:28:48;;;;;;;10.13;7.43;;;;;;;22.23;64.87;98658.19;5047860;28;20416;-72
2021/09/07 01:31:15;;;;;;;10.90;7.50;;;;;;;22.24;65.14;98651.69;5050730;28;20244;-72
2021/09/07 01:33:47;;;;;;;13.03;8.13;;;;;;;22.26;65.04;98649.53;5049566;28;20205;-72
2021/09/07 01:36:15;;;;;;;9.80;7.53;;;;;;;22.33;63.48;98652.00;5050665;28;20217;-72
2021/09/07 01:38:43;;;;;;;10.47;7.57;;;;;;;22.26;64.16;98651.41;5052615;28;20198;-72
2021/09/07 01:41:10;;;;;;;10.90;7.80;;;;;;;22.39;63.38;98659.16;5051787;28;20232;-72
2021/09/07 01:43:39;;;;;;;12.67;8.20;;;;;;;22.09;65.25;98650.75;5049282;28;20733;-72
2021/09/07 01:46:06;;;;;;;9.77;7.40;;;;;;;22.32;63.89;98655.81;5051801;28;20212;-72
2021/09/07 01:48:33;;;;;;;10.37;6.63;;;;;;;22.45;62.44;98652.69;5047487;28;20201;-72
2021/09/07 01:51:01;;;;;;;13.03;7.60;;;;;;;22.40;62.65;98658.06;5051555;28;20202;-72
2021/09/07 01:53:28;;;;;;;12.93;7.83;;;;;;;22.45;62.21;98655.41;5052455;28;20208;-71
2021/09/07 01:55:55;;;;;;;12.43;6.97;;;;;;;22.51;61.64;98648.94;5049920;28;20211;-71
2021/09/07 01:58:22;;;;;;;9.53;7.37;;;;;;;22.34;62.23;98651.75;5047880;28;20214;-70
2021/09/07 02:00:51;;;;;;;11.63;8.10;;;;;;;22.10;64.17;98653.19;5045024;28;20198;-72
2021/09/07 02:03:18;;;;;;;13.57;8.23;;;;;;;21.44;67.57;98655.47;5050872;28;20689;-72
2021/09/07 02:05:46;;;;;;;11.60;7.40;;;;;;;21.99;65.42;98653.38;5046506;28;20239;-72
2021/09/07 02:08:13;;;;;;;13.70;8.27;;;;;;;22.20;64.65;98653.25;5050142;28;20211;-72
2021/09/07 02:10:40;;;;;;;13.10;8.23;;;;;;;22.47;62.37;98643.19;5044834;28;20205;-72
2021/09/07 02:13:08;;;;;;;10.77;7.97;;;;;;;22.34;63.00;98656.41;5043676;28;20457;-73
2021/09/07 02:15:35;;;;;;;12.50;8.53;;;;;;;21.87;66.16;98639.09;5046293;28;20193;-72
2021/09/07 02:18:04;;;;;;;11.60;8.40;;;;;;;22.17;64.95;98636.66;5048380;28;20212;-72
2021/09/07 02:20:31;;;;;;;13.60;8.30;;;;;;;21.88;66.04;98640.78;5050181;28;20201;-72
2021/09/07 02:22:58;;;;;;;11.60;8.27;;;;;;;22.24;64.17;98646.22;5045680;28;20228;-72
2021/09/07 02:25:26;;;;;;;13.43;7.87;;;;;;;22.28;62.97;98644.66;5055327;28;20224;-71
2021/09/07 02:27:53;;;;;;;11.97;8.57;;;;;;;22.06;64.72;98649.38;5046899;28;20204;-71
2021/09/07 02:30:20;;;;;;;12.43;8.27;;;;;;;21.82;65.99;98649.94;5051263;28;20201;-72
2021/09/07 02:32:47;;;;;;;12.60;7.80;;;;;;;21.90;65.47;98647.59;5049413;28;20235;-72
2021/09/07 02:35:16;;;;;;;13.43;7.97;;;;;;;21.70;66.77;98650.09;5050383;28;20198;-72
2021/09/07 02:37:43;;;;;;;12.17;8.70;;;;;;;21.85;66.54;98649.44;5043605;28;20200;-72
2021/09/07 02:40:11;;;;;;;13.63;8.83;;;;;;;22.07;65.25;98650.16;5050785;28;20208;-72
2021/09/07 02:42:39;;;;;;;12.43;7.67;;;;;;;22.00;64.79;98647.66;5044399;28;20247;-72
2021/09/07 02:45:08;;;;;;;12.87;8.37;;;;;;;21.93;65.92;98652.50;5048644;28;20230;-72
2021/09/07 02:47:35;;;;;;;14.70;8.07;;;;;;;22.27;63.72;98653.06;5049876;28;20208;-72
2021/09/07 02:50:02;;;;;;;12.80;7.47;;;;;;;22.07;64.75;98653.72;5047795;28;20205;-72
2021/09/07 02:52:31;;;;;;;11.93;8.17;;;;;;;21.68;66.76;98651.41;5051204;28;20227;-72
2021/09/07 02:54:59;;;;;;;10.40;7.77;;;;;;;21.65;66.40;98660.06;5049579;28;20211;-72
2021/09/07 02:57:26;;;;;;;13.93;9.03;;;;;;;21.83;66.75;98655.13;5049758;28;20210;-72
2021/09/07 02:59:56;;;;;;;11.87;8.57;;;;;;;21.95;65.18;98658.47;5050665;28;20296;-72
2021/09/07 03:02:23;;;;;;;15.67;9.27;;;;;;;21.85;66.27;98658.41;5042883;28;20749;-72
2021/09/07 03:04:50;;;;;;;12.93;8.43;;;;;;;21.91;65.64;98651.09;5051582;28;20222;-72
2021/09/07 03:07:18;;;;;;;13.43;8.67;;;;;;;22.03;64.98;98657.19;5049636;28;20573;-72
2021/09/07 03:09:47;;;;;;;12.83;8.77;;;;;;;21.95;65.07;98654.97;5046163;28;20289;-72
2021/09/07 03:12:14;;;;;;;12.27;8.70;;;;;;;21.77;65.99;98649.88;5049162;28;20230;-72
2021/09/07 03:14:41;;;;;;;15.50;9.17;;;;;;;21.17;70.05;98660.84;5046329;28;20205;-72
2021/09/07 03:17:09;;;;;;;12.17;8.33;;;;;;;21.47;69.18;98657.66;5048507;28;20202;-70
2021/09/07 03:19:36;;;;;;;13.77;9.03;;;;;;;21.71;66.92;98657.16;5047601;28;20201;-72
2021/09/07 03:22:03;;;;;;;13.67;8.43;;;;;;;21.89;65.39;98648.63;5049760;28;20235;-72
2021/09/07 03:24:31;;;;;;;11.30;8.03;;;;;;;21.71;66.38;98640.88;5042472;28;20232;-72
2021/09/07 03:26:59;;;;;;;12.70;8.13;;;;;;;21.66;66.82;98640.78;5046251;28;20208;-72
2021/09/07 03:29:27;;;;;;;11.03;8.13;;;;;;;21.75;67.11;98643.88;5050601;28;20208;-72
2021/09/07 03:31:54;;;;;;;12.97;8.60;;;;;;;21.79;66.57;98640.38;5043833;28;20232;-73
2021/09/07 03:34:21;;;;;;;11.30;8.67;;;;;;;21.69;66.66;98636.78;5046923;28;20207;-73
2021/09/07 03:36:48;;;;;;;12.87;8.90;;;;;;;21.55;67.34;98635.50;5051408;28;20209;-72
2021/09/07 03:39:16;;;;;;;13.40;9.00;;;;;;;21.63;67.06;98632.34;5044305;28;20212;-71
2021/09/07 03:41:43;;;;;;;13.40;8.70;;;;;;;21.77;65.91;98633.56;5049494;28;20712;-71
2021/09/07 03:44:12;;;;;;;13.20;9.00;;;;;;;21.71;65.71;98632.72;5051519;28;20212;-72
2021/09/07 03:46:39;;;;;;;11.20;8.67;;;;;;;21.84;65.98;98621.41;5050664;28;20229;-72
2021/09/07 03:49:06;;;;;;;14.63;8.60;;;;;;;21.70;66.00;98622.09;5050882;28;20638;-72
2021/09/07 03:51:34;;;;;;;12.83;8.27;;;;;;;21.77;65.34;98623.53;5049077;28;20228;-72
2021/09/07 03:54:01;;;;;;;14.23;8.47;;;;;;;21.39;67.24;98626.34;5044085;28;20300;-72
2021/09/07 03:56:29;;;;;;;12.83;8.43;;;;;;;21.80;64.79;98622.19;5043741;28;20269;-72
2021/09/07 03:58:56;;;;;;;12.60;8.40;;;;;;;21.85;64.51;98619.53;5051908;28;20198;-72
2021/09/07 04:01:25;;;;;;;13.37;8.87;;;;;;;21.71;65.31;98626.44;5049485;28;20233;-73
2021/09/07 04:03:52;;;;;;;14.97;8.90;;;;;;;21.68;65.02;98622.34;5048609;28;20208;-72
2021/09/07 04:06:19;;;;;;;12.63;7.80;;;;;;;21.69;64.63;98626.69;5050547;28;20261;-72
2021/09/07 04:08:46;;;;;;;17.50;8.70;;;;;;;21.66;64.93;98626.38;5050407;28;20204;-72
2021/09/07 04:11:14;;;;;;;12.60;8.53;;;;;;;21.42;66.61;98633.16;5045379;28;20223;-72
2021/09/07 04:13:41;;;;;;;13.50;8.90;;;;;;;21.57;65.30;98633.34;5047765;28;20314;-72
2021/09/07 04:16:08;;;;;;;11.93;8.60;;;;;;;21.66;64.72;98634.53;5049548;28;20210;-72
2021/09/07 04:18:37;;;;;;;13.87;8.77;;;;;;;21.68;64.65;98641.38;5050957;28;20232;-71
2021/09/07 04:21:05;;;;;;;11.47;8.53;;;;;;;21.65;64.49;98638.31;5038188;28;20216;-72
2021/09/07 04:23:32;;;;;;;14.23;9.60;;;;;;;21.65;64.81;98632.88;5046115;28;20207;-72
2021/09/07 04:25:59;;;;;;;15.83;9.17;;;;;;;21.75;64.74;98631.13;5048548;28;20228;-72
2021/09/07 04:28:27;;;;;;;16.27;10.00;;;;;;;21.70;64.95;98638.41;5040399;28;20239;-72
2021/09/07 04:30:54;;;;;;;15.63;10.10;;;;;;;21.55;65.90;98639.03;5044787;28;20204;-72
2021/09/07 04:33:21;;;;;;;15.43;10.50;;;;;;;21.44;67.38;98639.19;5051142;28;20210;-72
2021/09/07 04:35:50;;;;;;;16.37;10.17;;;;;;;21.76;65.22;98642.81;5051040;28;20201;-72
2021/09/07 04:38:17;;;;;;;17.47;10.10;;;;;;;21.78;64.82;98636.03;5050090;28;20212;-72
2021/09/07 04:40:45;;;;;;;14.57;9.33;;;;;;;21.78;64.73;98636.03;5052753;28;20213;-73
2021/09/07 04:43:12;;;;;;;12.80;9.70;;;;;;;21.62;65.73;98638.81;5052572;28;20230;-73
2021/09/07 04:45:39;;;;;;;18.63;9.77;;;;;;;21.74;65.25;98629.47;5052540;28;20587;-72
2021/09/07 04:48:07;;;;;;;16.30;9.67;;;;;;;21.87;63.98;98637.22;5052725;28;20206;-72
2021/09/07 04:50:34;;;;;;;17.90;9.67;;;;;;;21.62;65.42;98636.09;5053230;28;20567;-72
2021/09/07 04:53:03;;;;;;;15.87;9.90;;;;;;;21.48;66.59;98634.88;5047151;28;20596;-73
2021/09/07 04:55:30;;;;;;;14.07;9.60;;;;;;;21.64;65.45;98637.50;5045901;28;20212;-73
2021/09/07 04:57:57;;;;;;;14.60;9.63;;;;;;;21.87;64.56;98641.81;5051073;28;20205;-72
2021/09/07 05:00:25;;;;;;;15.63;9.47;;;;;;;21.81;64.85;98645.56;5048988;28;20204;-70
2021/09/07 05:02:52;;;;;;;14.57;9.73;;;;;;;21.79;65.11;98645.81;5047860;28;20217;-73
2021/09/07 05:05:19;;;;;;;12.87;9.13;;;;;;;21.87;65.05;98642.66;5051110;28;20732;-73
2021/09/07 05:07:47;;;;;;;16.77;10.20;;;;;;;21.64;66.73;98647.56;5047533;28;20574;-73
2021/09/07 05:10:15;;;;;;;13.90;9.17;;;;;;;21.32;69.24;98650.19;5050915;28;20204;-72
2021/09/07 05:12:43;;;;;;;13.83;10.27;;;;;;;21.81;66.38;98646.41;5050344;28;20243;-73
2021/09/07 05:15:11;;;;;;;15.57;9.53;;;;;;;21.85;66.45;98652.13;5053290;28;20697;-72
2021/09/07 05:17:38;;;;;;;13.90;9.57;;;;;;;21.94;65.80;98645.97;5054109;28;20204;-72
2021/09/07 05:20:06;;;;;;;15.40;9.73;;;;;;;22.33;63.71;98646.56;5055508;28;20582;-72
2021/09/07 05:22:34;;;;;;;15.83;9.73;;;;;;;22.26;64.05;98648.69;5050976;28;20728;-73
2021/09/07 05:25:05;;;;;;;16.47;9.53;;;;;;;22.42;63.46;98643.13;5046177;28;20205;-72
2021/09/07 05:27:33;;;;;;;14.70;9.40;;;;;;;22.45;63.36;98647.25;5046655;28;20205;-72
2021/09/07 05:30:01;;;;;;;16.40;9.30;;;;;;;22.47;63.70;98645.09;5047950;28;20206;-70
2021/09/07 05:32:28;;;;;;;14.27;9.30;;;;;;;22.60;63.25;98656.31;5052102;28;20236;-69
2021/09/07 05:34:55;;;;;;;16.00;10.47;;;;;;;22.63;63.13;98655.81;5049913;28;20198;-69
2021/09/07 05:37:23;;;;;;;17.10;9.73;;;;;;;22.52;63.57;98654.13;5050929;28;20291;-69
2021/09/07 05:39:50;;;;;;;13.63;9.10;;;;;;;22.62;63.68;98658.78;5046108;28;20623;-71
2021/09/07 05:42:17;;;;;;;14.20;9.30;;;;;;;22.73;63.03;98663.22;5053843;28;20236;-70
2021/09/07 05:44:46;;;;;;;17.47;9.00;;;;;;;22.82;62.73;98662.47;5049331;28;20197;-70
2021/09/07 05:47:13;;;;;;;17.87;9.50;;;;;;;22.97;62.14;98665.28;5046625;28;20222;-72
2021/09/07 05:49:40;;;;;;;14.53;9.17;;;;;;;23.06;61.74;98673.78;5051147;28;20210;-70
2021/09/07 05:52:08;;;;;;;13.60;9.33;;;;;;;23.23;61.49;98666.25;5046111;28;20659;-70
2021/09/07 05:54:35;;;;;;;14.40;8.57;;;;;;;23.29;60.58;98666.00;5049559;28;20201;-69
2021/09/07 05:57:02;;;;;;;13.93;8.80;;;;;;;23.45;60.07;98673.16;5052841;28;20214;-76
2021/09/07 05:59:30;;;;;;;12.10;8.80;;;;;;;23.53;59.27;98672.66;5041023;28;20233;-75
2021/09/07 06:01:58;;;;;;;14.03;9.10;;;;;;;23.77;59.06;98686.63;5052299;28;20230;-76
2021/09/07 06:04:26;;;;;;;18.20;9.20;;;;;;;23.48;57.60;98691.69;5056902;28;20201;-79
2021/09/07 06:06:53;;;;;;;14.53;9.30;;;;;;;23.35;57.33;98689.47;5059135;28;20226;-80
2021/09/07 06:09:20;;;;;;;12.53;9.03;;;;;;;23.59;55.60;98692.53;5054220;28;20341;-78
2021/09/07 06:11:48;;;;;;;12.07;9.03;;;;;;;23.86;55.48;98687.72;5047287;28;20236;-71
2021/09/07 06:14:15;;;;;;;13.50;8.63;;;;;;;24.10;53.07;98702.50;5050734;28;20229;-70
2021/09/07 06:16:42;;;;;;;14.47;8.73;;;;;;;24.31;52.84;98691.34;5047345;28;21575;-70
2021/09/07 06:19:11;;;;;;;11.20;8.53;;;;;;;24.37;52.85;98703.09;5040716;28;20202;-70
2021/09/07 06:21:38;;;;;;;12.80;8.83;;;;;;;24.60;52.37;98697.94;5034983;28;20288;-69
2021/09/07 06:24:06;;;;;;;12.77;8.73;;;;;;;24.82;52.12;98698.47;5037376;28;20211;-72
2021/09/07 06:26:33;;;;;;;11.07;8.40;;;;;;;25.10;51.55;98703.31;5042735;28;20229;-74
2021/09/07 06:29:01;;;;;;;13.57;8.63;;;;;;;25.17;51.15;98700.28;5039345;28;20199;-70
2021/09/07 06:31:28;;;;;;;12.07;9.03;;;;;;;25.37;49.29;98703.81;5039519;28;20237;-69
2021/09/07 06:33:55;;;;;;;16.13;9.33;;;;;;;25.89;47.78;98708.78;5040240;28;20328;-69
2021/09/07 06:36:24;;;;;;;15.20;8.67;;;;;;;25.86;47.71;98720.28;5047774;28;20220;-67
2021/09/07 06:38:51;;;;;;;13.53;8.43;;;;;;;26.02;47.49;98711.72;5049866;28;20203;-67
2021/09/07 06:41:18;;;;;;;13.83;8.80;;;;;;;25.45;48.21;98711.44;5049933;28;20226;-67
2021/09/07 06:43:46;;;;;;;18.50;9.03;;;;;;;25.56;48.45;98704.84;5049239;28;20717;-67
2021/09/07 06:46:13;;;;;;;13.93;8.97;;;;;;;25.85;47.67;98711.22;5048179;28;20289;-69
2021/09/07 06:48:41;;;;;;;14.57;9.17;;;;;;;25.14;49.42;98706.31;5040210;28;20208;-72
2021/09/07 06:51:08;;;;;;;14.43;8.80;;;;;;;26.24;46.18;98709.38;5046992;28;20223;-70
2021/09/07 06:53:37;;;;;;;15.67;9.07;;;;;;;26.61;45.00;98712.41;5050634;28;20205;-72
2021/09/07 06:56:04;;;;;;;15.53;8.93;;;;;;;26.77;43.65;98715.84;5039838;28;20208;-72
2021/09/07 06:58:32;;;;;;;14.27;9.00;;;;;;;25.99;45.01;98719.69;5051252;28;20214;-69
2021/09/07 07:00:59;;;;;;;13.37;9.40;;;;;;;26.38;44.15;98713.13;5042031;28;20207;-70
2021/09/07 07:03:29;;;;;;;13.90;9.13;;;;;;;26.99;42.56;98719.72;5044771;28;20241;-69
2021/09/07 07:05:56;;;;;;;16.20;9.37;;;;;;;26.31;43.97;98720.03;5040831;28;20324;-73
2021/09/07 07:08:23;;;;;;;18.43;10.40;;;;;;;26.75;42.19;98731.75;5044116;28;20229;-69
2021/09/07 07:10:52;;;;;;;16.17;9.90;;;;;;;25.57;45.89;98722.03;5047189;28;20201;-71
2021/09/07 07:13:19;;;;;;;12.80;9.50;;;;;;;26.67;43.18;98732.34;5046691;28;20207;-71
2021/09/07 07:15:47;;;;;;;17.07;9.93;;;;;;;27.25;41.02;98740.31;5049512;28;20202;-69
2021/09/07 07:18:14;;;;;;;14.03;9.57;;;;;;;27.98;39.62;98738.88;5047624;28;20197;-69
2021/09/07 07:20:41;;;;;;;15.30;9.43;;;;;;;27.31;41.08;98730.94;5050747;28;20212;-69
2021/09/07 07:23:09;;;;;;;16.53;10.10;;;;;;;25.17;46.10;98727.59;5052011;28;20607;-69
2021/09/07 07:25:36;;;;;;;18.13;9.20;;;;;;;26.91;41.72;98731.31;5042730;28;20198;-71
2021/09/07 07:28:06;;;;;;;14.37;9.40;;;;;;;27.95;39.17;98735.94;5057908;28;20278;-73
2021/09/07 07:30:33;;;;;;;14.80;8.67;;;;;;;28.14;38.32;98748.56;5047561;28;20683;-72
2021/09/07 07:33:01;;;;;;;19.23;9.53;;;;;;;25.98;42.52;98735.28;5050459;28;20349;-71
2021/09/07 07:35:28;;;;;;;20.03;9.40;;;;;;;27.84;39.41;98739.91;5042371;28;20206;-72
2021/09/07 07:37:55;;;;;;;15.40;9.00;;;;;;;28.27;37.65;98741.53;5042026;28;20214;-70
2021/09/07 07:40:24;;;;;;;14.73;9.07;;;;;;;28.64;36.91;98747.00;5050760;28;20206;-72
2021/09/07 07:42:51;;;;;;;17.03;9.50;;;;;;;28.14;38.39;98750.50;5049713;28;20291;-71
2021/09/07 07:45:20;;;;;;;13.23;8.93;;;;;;;28.68;36.98;98757.09;5044570;28;20206;-71
2021/09/07 07:47:47;;;;;;;14.43;8.77;;;;;;;29.74;34.66;98767.03;5049939;28;20217;-70
2021/09/07 07:50:15;;;;;;;14.47;8.90;;;;;;;29.50;34.93;98771.88;5043644;28;20203;-72
2021/09/07 07:52:42;;;;;;;14.77;9.17;;;;;;;28.53;37.10;98768.31;5048588;28;20341;-72
2021/09/07 07:55:10;;;;;;;18.60;9.77;;;;;;;28.45;37.81;98759.94;5046934;28;20290;-71
2021/09/07 07:57:37;;;;;;;20.17;9.27;;;;;;;27.73;38.95;98758.44;5051187;28;20198;-71
2021/09/07 08:00:05;;;;;;;15.20;8.13;;;;;;;27.01;41.08;98753.13;5047844;28;20225;-71
2021/09/07 08:02:34;;;;;;;17.87;10.97;;;;;;;28.85;37.81;98757.38;5043980;28;20224;-72
2021/09/07 08:05:01;;;;;;;17.43;9.27;;;;;;;28.90;37.04;98760.03;5046201;28;20670;-71
2021/09/07 08:07:28;;;;;;;18.10;11.20;;;;;;;29.64;35.80;98759.78;5049931;28;20232;-72
2021/09/07 08:09:56;;;;;;;10.10;7.50;;;;;;;27.28;39.66;98747.97;5059025;28;20228;-72
2021/09/07 08:12:23;;;;;;;15.37;10.53;;;;;;;29.19;37.49;98741.38;5055079;28;20232;-72
2021/09/07 08:14:50;;;;;;;14.63;9.00;;;;;;;30.06;34.40;98759.44;5053866;28;20209;-72
2021/09/07 08:17:18;;;;;;;15.63;8.80;;;;;;;30.17;33.53;98766.41;5055480;28;20294;-72
2021/09/07 08:19:46;;;;;;;9.87;7.23;;;;;;;30.26;33.28;98761.78;5055174;28;20731;-73
2021/09/07 08:22:14;;;;;;;11.10;7.40;;;;;;;29.10;33.68;98767.97;5055533;28;20228;-71
2021/09/07 08:24:42;;;;;;;10.97;6.93;;;;;;;27.68;36.07;98769.47;5051395;28;20207;-72
2021/09/07 08:27:09;;;;;;;9.73;6.60;;;;;;;29.40;33.45;98763.84;5056599;28;20224;-72
2021/09/07 08:29:37;;;;;;;9.30;6.10;;;;;;;29.00;32.33;98776.38;5057640;28;20287;-71
2021/09/07 08:32:06;;;;;;;9.30;5.80;;;;;;;29.81;31.75;98772.94;5055842;28;20238;-70
2021/09/07 08:34:33;;;;;;;9.40;5.93;;;;;;;29.40;31.75;98769.34;5052395;28;20214;-72
2021/09/07 08:37:03;;;;;;;13.20;5.80;;;;;;;30.40;31.54;98764.53;5055056;28;20219;-71
2021/09/07 08:39:31;;;;;;;8.63;5.93;;;;;;;29.84;32.25;98758.59;5054184;28;20735;-69
2021/09/07 08:41:58;;;;;;;8.40;5.63;;;;;;;29.82;31.95;98767.13;5047714;28;20232;-69
2021/09/07 08:44:26;;;;;;;10.07;6.00;;;;;;;28.71;35.19;98751.00;5051059;28;20214;-72
2021/09/07 08:46:53;;;;;;;10.87;6.33;;;;;;;29.64;33.44;98764.50;5053124;28;20918;-68
2021/09/07 08:49:21;;;;;;;10.02;6.60;;;;;;;30.53;32.10;98761.72;5052532;28;20202;-69
2021/09/07 08:51:49;;;;;;;10.63;6.40;;;;;;;27.84;35.80;98759.13;5054526;28;20230;-70
2021/09/07 08:54:18;;;;;;;10.73;6.43;;;;;;;29.19;34.46;98760.63;5048910;28;20210;-71
2021/09/07 08:56:45;;;;;;;10.57;6.50;;;;;;;30.79;32.13;98770.19;5052403;28;20201;-69
2021/09/07 08:59:12;;;;;;;10.00;6.03;;;;;;;30.31;31.79;98767.16;5051130;28;20593;-70
2021/09/07 09:01:47;;;;;;;11.13;7.05;;;;;;;29.62;32.96;98780.47;5056949;28;20222;-70
2021/09/07 09:04:28;;;;;;;10.05;6.18;;;;;;;31.27;30.90;98785.78;5051863;28;20209;-71
2021/09/07 09:06:55;;;;;;;13.65;7.00;;;;;;;30.36;32.77;98777.28;5036292;28;20229;-70
2021/09/07 09:09:36;;;;;;;10.88;7.10;;;;;;;30.91;32.13;98784.25;5044953;28;20205;-69
2021/09/07 09:12:05;;;;;;;13.00;7.88;;;;;;;30.63;32.43;98782.69;5047593;28;20252;-71
2021/09/07 09:14:34;;;;;;;15.23;7.60;;;;;;;30.55;33.47;98775.19;5052749;28;20247;-70
2021/09/07 09:17:02;;;;;;;13.43;7.43;;;;;;;29.80;34.25;98774.88;5050288;28;20194;-70
2021/09/07 09:19:29;;;;;;;13.27;7.00;;;;;;;30.83;33.36;98774.78;5042675;28;20293;-70
2021/09/07 09:21:56;;;;;;;11.93;7.57;;;;;;;29.63;34.95;98766.41;5046666;28;20590;-74
2021/09/07 09:24:25;;;;;;;12.02;6.80;;;;;;;30.35;33.54;98781.16;5053079;28;20212;-70
2021/09/07 09:26:57;;;;;;;13.20;7.53;;;;;;;29.84;34.20;98775.09;5050545;28;20225;-70
2021/09/07 09:29:27;;;;;;;13.10;7.70;;;;;;;30.79;33.13;98767.44;5049142;28;20206;-70
2021/09/07 09:31:58;;;;;;;12.85;7.85;;;;;;;31.08;32.63;98771.41;5050412;28;20241;-70
2021/09/07 09:34:26;;;;;;;13.25;7.35;;;;;;;29.62;34.19;98772.22;5052493;28;20198;-69
2021/09/07 09:36:59;;;;;;;13.05;7.72;;;;;;;32.01;30.71;98770.22;5050732;28;20214;-70
2021/09/07 09:39:38;;;;;;;13.30;7.38;;;;;;;32.44;30.17;98769.19;5053167;28;20206;-69
2021/09/07 09:42:06;;;;;;;13.85;7.80;;;;;;;31.18;31.79;98776.66;5047932;28;20225;-71
2021/09/07 09:44:34;;;;;;;13.05;7.85;;;;;;;32.44;29.77;98771.94;5052249;28;20567;-69
2021/09/07 09:47:01;;;;;;;14.15;7.35;;;;;;;32.56;29.94;98774.91;5039708;28;20226;-69
2021/09/07 09:49:30;;;;;;;11.57;7.28;;;;;;;32.36;28.95;98781.06;5051863;28;20651;-68
2021/09/07 09:52:03;;;;;;;9.75;6.57;;;;;;;32.04;29.33;98778.69;5043167;28;20225;-73
2021/09/07 09:54:32;;;;;;;14.07;7.28;;;;;;;31.15;31.46;98770.94;5042289;28;20208;-68
2021/09/07 09:57:02;;;;;;;14.00;6.80;;;;;;;32.26;29.93;98767.56;5044910;28;20210;-68
2021/09/07 09:59:29;;;;;;;11.02;7.20;;;;;;;30.68;30.83;98783.44;5045083;28;20213;-71
2021/09/07 10:01:58;;;;;;;13.80;7.00;;;;;;;31.40;32.11;98759.25;5046632;28;20229;-70
2021/09/07 10:04:27;;;;;;;13.98;7.28;;;;;;;31.74;30.06;98784.28;5049287;28;20304;-70
2021/09/07 10:06:55;;;;;;;15.40;7.07;;;;;;;31.30;31.38;98781.59;5051365;28;20226;-71
2021/09/07 10:09:25;;;;;;;19.35;7.35;;;;;;;30.78;30.96;98783.19;5044036;28;20218;-72
2021/09/07 10:11:55;;;;;;;12.98;6.97;;;;;;;31.72;28.79;98779.03;5045140;28;20231;-72
2021/09/07 10:14:28;;;;;;;10.95;6.20;;;;;;;30.61;30.54;98783.00;5048994;28;20289;-70
2021/09/07 10:17:17;;;;;;;14.80;6.72;;;;;;;31.80;27.85;98783.00;5047132;28;20639;-72
2021/09/07 10:19:46;;;;;;;8.27;6.70;;;;;;;31.04;29.32;98777.84;5044137;28;20646;-71
2021/09/07 10:25:58;;;;;;;10.00;6.88;;;;;;;31.18;29.92;98765.63;5049645;28;20197;-70
2021/09/07 10:28:33;;;;;;;10.70;6.53;;;;;;;31.30;30.53;98770.56;5052887;28;20239;-71
2021/09/07 10:31:05;;;;;;;10.95;6.63;;;;;;;29.76;31.90;98771.13;5050154;28;20567;-70
2021/09/07 10:33:44;;;;;;;10.55;6.15;;;;;;;31.12;30.92;98760.53;5052870;28;20289;-71
2021/09/07 10:36:14;;;;;;;14.48;6.47;;;;;;;31.08;30.82;98759.53;5048948;28;20236;-70
2021/09/07 10:38:43;;;;;;;10.90;7.18;;;;;;;31.82;30.69;98742.09;5050511;28;20537;-74
2021/09/07 10:41:12;;;;;;;15.35;6.60;;;;;;;33.12;28.58;98760.06;5048333;28;20210;-73
2021/09/07 10:43:53;;;;;;;8.98;6.18;;;;;;;33.42;27.67;98759.00;5049424;28;20203;-70
2021/09/07 10:47:05;;;;;;;10.75;6.38;;;;;;;31.37;28.08;98765.41;5045874;28;20198;-77
2021/09/07 10:49:47;;;;;;;8.57;5.78;;;;;;;32.54;28.17;98751.47;4986043;28;20208;-71
2021/09/07 10:52:42;;;;;;;9.95;6.30;;;;;;;32.06;27.85;98747.97;4989535;28;20242;-73
2021/09/07 10:55:18;;;;;;;10.15;6.07;;;;;;;30.65;28.90;98750.16;5037108;28;20203;-71
2021/09/07 10:57:52;;;;;;;8.77;6.18;;;;;;;32.90;27.19;98747.25;5048991;28;20671;-71
2021/09/07 11:00:36;;;;;;;8.98;6.18;;;;;;;33.48;25.79;98750.22;5045156;28;20210;-70
2021/09/07 11:03:09;;;;;;;11.05;6.22;;;;;;;33.42;26.49;98742.41;5043239;28;20226;-69
2021/09/07 11:05:47;;;;;;;11.07;5.90;;;;;;;33.52;24.83;98733.75;5039300;28;20213;-68
2021/09/07 11:08:19;;;;;;;7.63;5.20;;;;;;;30.60;27.07;98744.75;5042975;28;20679;-74
2021/09/07 11:10:49;;;;;;;9.85;5.72;;;;;;;30.59;27.79;98737.59;5052603;28;20545;-75
2021/09/07 11:13:25;;;;;;;7.47;5.65;;;;;;;31.42;26.79;98732.16;5052179;28;20232;-73
2021/09/07 11:15:53;;;;;;;8.13;5.65;;;;;;;32.55;26.13;98730.97;5050042;28;20558;-76
2021/09/07 11:18:25;;;;;;;5.63;4.95;;;;;;;32.05;25.48;98736.13;5042062;28;20207;-71
2021/09/07 11:20:54;;;;;;;8.45;5.07;;;;;;;31.76;26.47;98729.53;5047377;28;20209;-71
2021/09/07 11:23:23;;;;;;;7.78;5.20;;;;;;;31.96;26.45;98727.00;5045834;28;20209;-72
2021/09/07 11:25:58;;;;;;;6.78;5.05;;;;;;;32.68;25.38;98728.03;5052101;28;20560;-71
2021/09/07 11:28:25;;;;;;;6.80;5.47;;;;;;;31.63;25.95;98730.47;5046710;28;20228;-72
2021/09/07 11:30:53;;;;;;;6.28;4.72;;;;;;;31.19;26.61;98722.28;5043898;28;20693;-69
2021/09/07 11:33:23;;;;;;;7.18;5.45;;;;;;;30.87;26.42;98722.59;5044089;28;20208;-68
2021/09/07 11:35:52;;;;;;;6.88;4.95;;;;;;;31.04;25.43;98726.28;5046100;28;20208;-71